Pass Christian, Mississippi
Current Conditions -  °F | °C
As of 7:53 AM on Monday 26 Jan 2015 (Local Time) from KGPT Reporting Station
Clear Clear  
Wind Chill: 40°   Ceiling: Unl
Heat Index: 45°   Visibility: 10mi
Dew Point: 35°   Wind: 9mph
Humidity: 68%   Direction: 320°NW
Pressure: 30.07"   Gusts: NA
Location:  30.32°N, 89.22°W
Report Text: KGPT 261353Z 32008KT 10SM CLR 07/02 A3007 RMK AO2 SLP182 T00720017
Loading
Personal Weather Stations






























Interactive Weather Map New forecast layout! Learn more

10-Day Weather Forecast

Advertisements
Track Severe Weather on mobile